sensor_id;sensor_type;location;lat;lon;timestamp;P1;durP1;ratioP1;P2;durP2;ratioP2
20140;SDS011;10231;47.702;9.826;2022-07-05T00:00:08;3.07;;;2.77;;
20140;SDS011;10231;47.702;9.826;2022-07-05T00:02:34;2.77;;;2.63;;
20140;SDS011;10231;47.702;9.826;2022-07-05T00:04:59;3.10;;;2.60;;
20140;SDS011;10231;47.702;9.826;2022-07-05T00:07:25;3.63;;;3.43;;
20140;SDS011;10231;47.702;9.826;2022-07-05T00:09:52;3.30;;;3.10;;
20140;SDS011;10231;47.702;9.826;2022-07-05T00:12:20;2.87;;;2.63;;
20140;SDS011;10231;47.702;9.826;2022-07-05T00:14:47;4.07;;;3.00;;
20140;SDS011;10231;47.702;9.826;2022-07-05T00:17:14;3.00;;;2.80;;
20140;SDS011;10231;47.702;9.826;2022-07-05T00:19:39;3.17;;;2.97;;
20140;SDS011;10231;47.702;9.826;2022-07-05T00:22:05;3.73;;;2.67;;
20140;SDS011;10231;47.702;9.826;2022-07-05T00:24:31;3.17;;;2.87;;
20140;SDS011;10231;47.702;9.826;2022-07-05T00:26:57;3.90;;;2.67;;
20140;SDS011;10231;47.702;9.826;2022-07-05T00:29:23;3.17;;;2.97;;
20140;SDS011;10231;47.702;9.826;2022-07-05T00:31:49;2.70;;;2.50;;
20140;SDS011;10231;47.702;9.826;2022-07-05T00:34:14;2.70;;;2.50;;
20140;SDS011;10231;47.702;9.826;2022-07-05T00:36:40;3.10;;;2.80;;
20140;SDS011;10231;47.702;9.826;2022-07-05T00:39:06;3.67;;;3.43;;
20140;SDS011;10231;47.702;9.826;2022-07-05T00:41:32;2.97;;;2.77;;
20140;SDS011;10231;47.702;9.826;2022-07-05T00:43:59;4.27;;;3.13;;
20140;SDS011;10231;47.702;9.826;2022-07-05T00:46:27;3.23;;;2.93;;
20140;SDS011;10231;47.702;9.826;2022-07-05T00:48:53;3.47;;;3.17;;
20140;SDS011;10231;47.702;9.826;2022-07-05T00:51:19;3.00;;;2.80;;
20140;SDS011;10231;47.702;9.826;2022-07-05T00:53:47;3.67;;;3.33;;
20140;SDS011;10231;47.702;9.826;2022-07-05T00:56:13;3.97;;;2.70;;
20140;SDS011;10231;47.702;9.826;2022-07-05T00:58:39;3.17;;;2.33;;
20140;SDS011;10231;47.702;9.826;2022-07-05T01:01:06;2.77;;;2.27;;
20140;SDS011;10231;47.702;9.826;2022-07-05T01:03:33;3.57;;;2.73;;
20140;SDS011;10231;47.702;9.826;2022-07-05T01:06:03;2.80;;;2.60;;
20140;SDS011;10231;47.702;9.826;2022-07-05T01:08:31;3.70;;;2.67;;
20140;SDS011;10231;47.702;9.826;2022-07-05T01:11:00;4.00;;;3.60;;
20140;SDS011;10231;47.702;9.826;2022-07-05T01:13:26;3.70;;;3.43;;
20140;SDS011;10231;47.702;9.826;2022-07-05T01:15:52;3.70;;;3.40;;
20140;SDS011;10231;47.702;9.826;2022-07-05T01:18:19;2.90;;;2.70;;
20140;SDS011;10231;47.702;9.826;2022-07-05T01:20:47;2.90;;;2.70;;
20140;SDS011;10231;47.702;9.826;2022-07-05T01:23:14;2.77;;;2.63;;
20140;SDS011;10231;47.702;9.826;2022-07-05T01:25:40;3.00;;;2.80;;
20140;SDS011;10231;47.702;9.826;2022-07-05T01:28:06;2.47;;;2.37;;
20140;SDS011;10231;47.702;9.826;2022-07-05T01:30:33;2.50;;;2.30;;
20140;SDS011;10231;47.702;9.826;2022-07-05T01:33:00;2.50;;;2.17;;
20140;SDS011;10231;47.702;9.826;2022-07-05T01:35:26;2.50;;;2.30;;
20140;SDS011;10231;47.702;9.826;2022-07-05T01:37:51;4.70;;;2.30;;
20140;SDS011;10231;47.702;9.826;2022-07-05T01:40:18;2.20;;;2.00;;
20140;SDS011;10231;47.702;9.826;2022-07-05T01:42:45;2.10;;;1.77;;
20140;SDS011;10231;47.702;9.826;2022-07-05T01:45:11;2.10;;;2.00;;
20140;SDS011;10231;47.702;9.826;2022-07-05T01:47:43;3.07;;;2.47;;
20140;SDS011;10231;47.702;9.826;2022-07-05T01:50:10;2.50;;;2.30;;
20140;SDS011;10231;47.702;9.826;2022-07-05T01:52:40;2.67;;;2.30;;
20140;SDS011;10231;47.702;9.826;2022-07-05T01:55:08;4.13;;;2.23;;
20140;SDS011;10231;47.702;9.826;2022-07-05T01:57:34;2.47;;;2.27;;
20140;SDS011;10231;47.702;9.826;2022-07-05T02:00:00;3.23;;;2.10;;
20140;SDS011;10231;47.702;9.826;2022-07-05T02:02:26;3.17;;;2.87;;
20140;SDS011;10231;47.702;9.826;2022-07-05T02:04:52;4.23;;;2.47;;
20140;SDS011;10231;47.702;9.826;2022-07-05T02:07:17;3.43;;;2.33;;
20140;SDS011;10231;47.702;9.826;2022-07-05T02:09:43;2.40;;;2.20;;
20140;SDS011;10231;47.702;9.826;2022-07-05T02:12:08;4.10;;;2.40;;
20140;SDS011;10231;47.702;9.826;2022-07-05T02:14:34;2.40;;;2.30;;
20140;SDS011;10231;47.702;9.826;2022-07-05T02:17:00;2.77;;;2.57;;
20140;SDS011;10231;47.702;9.826;2022-07-05T02:19:26;2.23;;;2.13;;
20140;SDS011;10231;47.702;9.826;2022-07-05T02:21:52;2.60;;;2.37;;
20140;SDS011;10231;47.702;9.826;2022-07-05T02:24:19;2.50;;;2.40;;
20140;SDS011;10231;47.702;9.826;2022-07-05T02:26:45;3.00;;;2.70;;
20140;SDS011;10231;47.702;9.826;2022-07-05T02:29:10;3.80;;;2.70;;
20140;SDS011;10231;47.702;9.826;2022-07-05T02:31:36;2.60;;;2.50;;
20140;SDS011;10231;47.702;9.826;2022-07-05T02:34:02;3.77;;;2.63;;
20140;SDS011;10231;47.702;9.826;2022-07-05T02:36:27;2.30;;;2.20;;
20140;SDS011;10231;47.702;9.826;2022-07-05T02:38:53;3.50;;;2.87;;
20140;SDS011;10231;47.702;9.826;2022-07-05T02:41:18;2.77;;;2.50;;
20140;SDS011;10231;47.702;9.826;2022-07-05T02:43:44;3.07;;;2.50;;
20140;SDS011;10231;47.702;9.826;2022-07-05T02:46:10;3.50;;;2.57;;
20140;SDS011;10231;47.702;9.826;2022-07-05T02:48:36;2.53;;;2.33;;
20140;SDS011;10231;47.702;9.826;2022-07-05T02:51:02;2.90;;;2.70;;
20140;SDS011;10231;47.702;9.826;2022-07-05T02:53:28;2.43;;;2.33;;
20140;SDS011;10231;47.702;9.826;2022-07-05T02:55:54;2.80;;;2.60;;
20140;SDS011;10231;47.702;9.826;2022-07-05T02:58:20;2.40;;;2.30;;
20140;SDS011;10231;47.702;9.826;2022-07-05T03:00:46;2.63;;;2.33;;
20140;SDS011;10231;47.702;9.826;2022-07-05T03:03:14;2.43;;;2.30;;
20140;SDS011;10231;47.702;9.826;2022-07-05T03:05:42;2.93;;;2.67;;
20140;SDS011;10231;47.702;9.826;2022-07-05T03:08:08;3.13;;;2.27;;
20140;SDS011;10231;47.702;9.826;2022-07-05T03:10:34;2.43;;;2.33;;
20140;SDS011;10231;47.702;9.826;2022-07-05T03:13:01;3.53;;;2.43;;
20140;SDS011;10231;47.702;9.826;2022-07-05T03:15:26;2.57;;;2.20;;
20140;SDS011;10231;47.702;9.826;2022-07-05T03:17:52;3.80;;;2.50;;
20140;SDS011;10231;47.702;9.826;2022-07-05T03:20:18;2.30;;;1.70;;
20140;SDS011;10231;47.702;9.826;2022-07-05T03:22:43;3.70;;;2.57;;
20140;SDS011;10231;47.702;9.826;2022-07-05T03:25:09;2.10;;;2.00;;
20140;SDS011;10231;47.702;9.826;2022-07-05T03:27:35;1.97;;;1.87;;
20140;SDS011;10231;47.702;9.826;2022-07-05T03:30:01;2.30;;;2.20;;
20140;SDS011;10231;47.702;9.826;2022-07-05T03:32:28;2.07;;;1.83;;
20140;SDS011;10231;47.702;9.826;2022-07-05T03:34:53;2.30;;;2.20;;
20140;SDS011;10231;47.702;9.826;2022-07-05T03:37:19;3.53;;;1.77;;
20140;SDS011;10231;47.702;9.826;2022-07-05T03:39:45;3.40;;;2.00;;
20140;SDS011;10231;47.702;9.826;2022-07-05T03:42:10;2.00;;;1.63;;
20140;SDS011;10231;47.702;9.826;2022-07-05T03:44:36;1.97;;;1.87;;
20140;SDS011;10231;47.702;9.826;2022-07-05T03:47:01;2.03;;;1.90;;
20140;SDS011;10231;47.702;9.826;2022-07-05T03:49:27;2.60;;;2.33;;
20140;SDS011;10231;47.702;9.826;2022-07-05T03:51:53;2.50;;;2.40;;
20140;SDS011;10231;47.702;9.826;2022-07-05T03:54:18;3.97;;;2.10;;
20140;SDS011;10231;47.702;9.826;2022-07-05T03:56:44;4.13;;;1.80;;
20140;SDS011;10231;47.702;9.826;2022-07-05T03:59:10;3.90;;;2.13;;
20140;SDS011;10231;47.702;9.826;2022-07-05T04:01:35;2.33;;;2.23;;
20140;SDS011;10231;47.702;9.826;2022-07-05T04:04:01;2.23;;;2.13;;
20140;SDS011;10231;47.702;9.826;2022-07-05T04:06:27;2.30;;;2.20;;
20140;SDS011;10231;47.702;9.826;2022-07-05T04:08:53;4.40;;;1.90;;
20140;SDS011;10231;47.702;9.826;2022-07-05T04:11:19;2.97;;;2.20;;
20140;SDS011;10231;47.702;9.826;2022-07-05T04:13:44;2.63;;;2.43;;
20140;SDS011;10231;47.702;9.826;2022-07-05T04:16:10;2.60;;;2.40;;
20140;SDS011;10231;47.702;9.826;2022-07-05T04:18:37;2.20;;;1.93;;
20140;SDS011;10231;47.702;9.826;2022-07-05T04:21:02;4.73;;;2.10;;
20140;SDS011;10231;47.702;9.826;2022-07-05T04:23:28;2.00;;;1.90;;
20140;SDS011;10231;47.702;9.826;2022-07-05T04:25:54;3.30;;;2.33;;
20140;SDS011;10231;47.702;9.826;2022-07-05T04:28:20;2.23;;;2.10;;
20140;SDS011;10231;47.702;9.826;2022-07-05T04:30:46;2.60;;;1.73;;
20140;SDS011;10231;47.702;9.826;2022-07-05T04:33:12;1.77;;;1.53;;
20140;SDS011;10231;47.702;9.826;2022-07-05T04:35:38;1.90;;;1.80;;
20140;SDS011;10231;47.702;9.826;2022-07-05T04:38:03;2.43;;;1.97;;
20140;SDS011;10231;47.702;9.826;2022-07-05T04:40:29;1.50;;;1.43;;
20140;SDS011;10231;47.702;9.826;2022-07-05T04:42:54;1.80;;;1.70;;
20140;SDS011;10231;47.702;9.826;2022-07-05T04:45:20;2.20;;;1.90;;
20140;SDS011;10231;47.702;9.826;2022-07-05T04:47:46;2.50;;;2.30;;
20140;SDS011;10231;47.702;9.826;2022-07-05T04:50:12;2.13;;;2.03;;
20140;SDS011;10231;47.702;9.826;2022-07-05T04:52:37;2.37;;;2.20;;
20140;SDS011;10231;47.702;9.826;2022-07-05T04:55:03;2.10;;;2.00;;
20140;SDS011;10231;47.702;9.826;2022-07-05T04:57:36;2.07;;;1.97;;
20140;SDS011;10231;47.702;9.826;2022-07-05T05:00:02;2.40;;;2.30;;
20140;SDS011;10231;47.702;9.826;2022-07-05T05:02:28;3.27;;;2.23;;
20140;SDS011;10231;47.702;9.826;2022-07-05T05:04:54;2.70;;;2.50;;
20140;SDS011;10231;47.702;9.826;2022-07-05T05:07:19;2.30;;;2.10;;
20140;SDS011;10231;47.702;9.826;2022-07-05T05:09:45;2.60;;;2.13;;
20140;SDS011;10231;47.702;9.826;2022-07-05T05:12:10;2.07;;;1.97;;
20140;SDS011;10231;47.702;9.826;2022-07-05T05:14:36;2.47;;;2.00;;
20140;SDS011;10231;47.702;9.826;2022-07-05T05:17:02;2.00;;;1.87;;
20140;SDS011;10231;47.702;9.826;2022-07-05T05:19:27;2.60;;;2.00;;
20140;SDS011;10231;47.702;9.826;2022-07-05T05:21:53;2.40;;;2.10;;
20140;SDS011;10231;47.702;9.826;2022-07-05T05:24:18;4.50;;;2.40;;
20140;SDS011;10231;47.702;9.826;2022-07-05T05:29:20;3.37;;;2.13;;
20140;SDS011;10231;47.702;9.826;2022-07-05T05:31:46;4.40;;;1.90;;
20140;SDS011;10231;47.702;9.826;2022-07-05T05:34:12;2.40;;;2.20;;
20140;SDS011;10231;47.702;9.826;2022-07-05T05:36:38;2.80;;;2.20;;
20140;SDS011;10231;47.702;9.826;2022-07-05T05:39:03;2.67;;;2.47;;
20140;SDS011;10231;47.702;9.826;2022-07-05T05:41:29;1.87;;;1.77;;
20140;SDS011;10231;47.702;9.826;2022-07-05T05:43:55;2.40;;;1.60;;
20140;SDS011;10231;47.702;9.826;2022-07-05T05:46:20;2.77;;;2.00;;
20140;SDS011;10231;47.702;9.826;2022-07-05T05:48:46;4.00;;;3.13;;
20140;SDS011;10231;47.702;9.826;2022-07-05T05:51:11;2.33;;;2.17;;
20140;SDS011;10231;47.702;9.826;2022-07-05T05:53:37;3.27;;;2.37;;
20140;SDS011;10231;47.702;9.826;2022-07-05T05:56:03;3.70;;;2.27;;
20140;SDS011;10231;47.702;9.826;2022-07-05T05:58:29;2.60;;;1.57;;
20140;SDS011;10231;47.702;9.826;2022-07-05T06:00:55;2.43;;;2.23;;
20140;SDS011;10231;47.702;9.826;2022-07-05T06:03:21;1.97;;;1.87;;
20140;SDS011;10231;47.702;9.826;2022-07-05T06:05:48;2.47;;;2.27;;
20140;SDS011;10231;47.702;9.826;2022-07-05T06:08:13;3.63;;;2.53;;
20140;SDS011;10231;47.702;9.826;2022-07-05T06:10:39;1.97;;;1.87;;
20140;SDS011;10231;47.702;9.826;2022-07-05T06:13:06;2.67;;;2.43;;
20140;SDS011;10231;47.702;9.826;2022-07-05T06:15:34;2.80;;;2.60;;
20140;SDS011;10231;47.702;9.826;2022-07-05T06:18:00;2.50;;;2.40;;
20140;SDS011;10231;47.702;9.826;2022-07-05T06:20:27;2.40;;;2.20;;
20140;SDS011;10231;47.702;9.826;2022-07-05T06:22:54;2.07;;;1.97;;
20140;SDS011;10231;47.702;9.826;2022-07-05T06:25:21;3.10;;;2.30;;
20140;SDS011;10231;47.702;9.826;2022-07-05T06:27:48;2.47;;;2.30;;
20140;SDS011;10231;47.702;9.826;2022-07-05T06:30:16;2.53;;;2.37;;
20140;SDS011;10231;47.702;9.826;2022-07-05T06:32:45;2.60;;;2.40;;
20140;SDS011;10231;47.702;9.826;2022-07-05T06:35:12;2.90;;;2.67;;
20140;SDS011;10231;47.702;9.826;2022-07-05T06:40:11;3.67;;;2.90;;
20140;SDS011;10231;47.702;9.826;2022-07-05T06:42:38;3.20;;;2.57;;
20140;SDS011;10231;47.702;9.826;2022-07-05T06:45:05;3.30;;;3.00;;
20140;SDS011;10231;47.702;9.826;2022-07-05T06:47:31;3.03;;;2.83;;
20140;SDS011;10231;47.702;9.826;2022-07-05T06:49:58;3.40;;;3.07;;
20140;SDS011;10231;47.702;9.826;2022-07-05T06:52:24;3.57;;;3.23;;
20140;SDS011;10231;47.702;9.826;2022-07-05T06:54:49;3.23;;;3.03;;
20140;SDS011;10231;47.702;9.826;2022-07-05T06:57:18;2.53;;;2.40;;
20140;SDS011;10231;47.702;9.826;2022-07-05T06:59:47;3.10;;;2.90;;
20140;SDS011;10231;47.702;9.826;2022-07-05T07:02:13;4.07;;;3.10;;
20140;SDS011;10231;47.702;9.826;2022-07-05T07:04:39;3.60;;;3.20;;
20140;SDS011;10231;47.702;9.826;2022-07-05T07:07:05;2.77;;;2.67;;
20140;SDS011;10231;47.702;9.826;2022-07-05T07:10:00;3.20;;;3.00;;
20140;SDS011;10231;47.702;9.826;2022-07-05T07:12:28;2.60;;;2.43;;
20140;SDS011;10231;47.702;9.826;2022-07-05T07:14:54;3.17;;;2.87;;
20140;SDS011;10231;47.702;9.826;2022-07-05T07:17:21;2.97;;;2.70;;
20140;SDS011;10231;47.702;9.826;2022-07-05T07:19:47;3.10;;;2.80;;
20140;SDS011;10231;47.702;9.826;2022-07-05T07:22:13;3.47;;;3.17;;
20140;SDS011;10231;47.702;9.826;2022-07-05T07:24:39;3.27;;;3.03;;
20140;SDS011;10231;47.702;9.826;2022-07-05T07:27:05;3.63;;;2.70;;
20140;SDS011;10231;47.702;9.826;2022-07-05T07:29:32;2.83;;;2.67;;
20140;SDS011;10231;47.702;9.826;2022-07-05T07:31:59;2.50;;;2.30;;
20140;SDS011;10231;47.702;9.826;2022-07-05T07:34:26;2.80;;;2.60;;
20140;SDS011;10231;47.702;9.826;2022-07-05T07:36:52;3.20;;;3.00;;
20140;SDS011;10231;47.702;9.826;2022-07-05T07:39:18;2.53;;;2.43;;
20140;SDS011;10231;47.702;9.826;2022-07-05T07:41:44;2.90;;;2.70;;
20140;SDS011;10231;47.702;9.826;2022-07-05T07:44:10;3.67;;;2.77;;
20140;SDS011;10231;47.702;9.826;2022-07-05T07:46:35;2.70;;;2.50;;
20140;SDS011;10231;47.702;9.826;2022-07-05T07:49:02;2.70;;;2.10;;
20140;SDS011;10231;47.702;9.826;2022-07-05T07:51:28;2.30;;;2.20;;
20140;SDS011;10231;47.702;9.826;2022-07-05T07:53:54;2.63;;;2.43;;
20140;SDS011;10231;47.702;9.826;2022-07-05T07:56:20;3.20;;;3.00;;
20140;SDS011;10231;47.702;9.826;2022-07-05T07:58:46;4.03;;;3.67;;
20140;SDS011;10231;47.702;9.826;2022-07-05T08:01:12;4.13;;;3.10;;
20140;SDS011;10231;47.702;9.826;2022-07-05T08:03:39;3.07;;;2.80;;
20140;SDS011;10231;47.702;9.826;2022-07-05T08:06:05;3.20;;;2.93;;
20140;SDS011;10231;47.702;9.826;2022-07-05T08:08:33;4.47;;;3.20;;
20140;SDS011;10231;47.702;9.826;2022-07-05T08:11:02;3.23;;;3.03;;
20140;SDS011;10231;47.702;9.826;2022-07-05T08:13:28;2.90;;;2.60;;
20140;SDS011;10231;47.702;9.826;2022-07-05T08:15:53;3.40;;;3.10;;
20140;SDS011;10231;47.702;9.826;2022-07-05T08:18:19;3.47;;;2.63;;
20140;SDS011;10231;47.702;9.826;2022-07-05T08:21:03;2.87;;;2.67;;
20140;SDS011;10231;47.702;9.826;2022-07-05T08:23:47;2.93;;;2.70;;
20140;SDS011;10231;47.702;9.826;2022-07-05T08:26:13;3.50;;;3.00;;
20140;SDS011;10231;47.702;9.826;2022-07-05T08:28:39;3.10;;;2.90;;
20140;SDS011;10231;47.702;9.826;2022-07-05T08:31:04;3.20;;;3.00;;
20140;SDS011;10231;47.702;9.826;2022-07-05T08:33:30;3.10;;;2.90;;
20140;SDS011;10231;47.702;9.826;2022-07-05T08:35:56;3.30;;;3.10;;
20140;SDS011;10231;47.702;9.826;2022-07-05T08:38:21;3.20;;;2.90;;
20140;SDS011;10231;47.702;9.826;2022-07-05T08:40:50;5.37;;;3.60;;
20140;SDS011;10231;47.702;9.826;2022-07-05T08:43:17;3.83;;;3.37;;
20140;SDS011;10231;47.702;9.826;2022-07-05T08:45:45;3.60;;;3.30;;
20140;SDS011;10231;47.702;9.826;2022-07-05T08:48:12;3.27;;;3.07;;
20140;SDS011;10231;47.702;9.826;2022-07-05T08:50:41;6.10;;;3.67;;
20140;SDS011;10231;47.702;9.826;2022-07-05T08:53:07;3.80;;;3.60;;
20140;SDS011;10231;47.702;9.826;2022-07-05T08:55:33;3.93;;;3.40;;
20140;SDS011;10231;47.702;9.826;2022-07-05T08:57:59;4.20;;;3.90;;
20140;SDS011;10231;47.702;9.826;2022-07-05T09:00:25;4.00;;;3.70;;
20140;SDS011;10231;47.702;9.826;2022-07-05T09:02:51;4.20;;;3.60;;
20140;SDS011;10231;47.702;9.826;2022-07-05T09:05:17;3.27;;;3.00;;
20140;SDS011;10231;47.702;9.826;2022-07-05T09:07:48;4.20;;;3.90;;
20140;SDS011;10231;47.702;9.826;2022-07-05T09:10:24;4.00;;;3.30;;
20140;SDS011;10231;47.702;9.826;2022-07-05T09:12:51;3.43;;;3.13;;
20140;SDS011;10231;47.702;9.826;2022-07-05T09:15:17;3.13;;;2.93;;
20140;SDS011;10231;47.702;9.826;2022-07-05T09:17:45;3.67;;;2.87;;
20140;SDS011;10231;47.702;9.826;2022-07-05T09:20:12;4.90;;;3.63;;
20140;SDS011;10231;47.702;9.826;2022-07-05T09:22:46;3.30;;;3.10;;
20140;SDS011;10231;47.702;9.826;2022-07-05T09:27:50;3.47;;;3.27;;
20140;SDS011;10231;47.702;9.826;2022-07-05T09:30:23;3.20;;;3.00;;
20140;SDS011;10231;47.702;9.826;2022-07-05T09:33:07;3.17;;;3.07;;
20140;SDS011;10231;47.702;9.826;2022-07-05T09:35:38;3.60;;;2.67;;
20140;SDS011;10231;47.702;9.826;2022-07-05T09:38:05;2.60;;;2.50;;
20140;SDS011;10231;47.702;9.826;2022-07-05T09:43:18;2.37;;;2.27;;
20140;SDS011;10231;47.702;9.826;2022-07-05T09:46:01;2.77;;;2.67;;
20140;SDS011;10231;47.702;9.826;2022-07-05T09:48:29;2.93;;;2.73;;
20140;SDS011;10231;47.702;9.826;2022-07-05T09:51:08;3.63;;;2.90;;
20140;SDS011;10231;47.702;9.826;2022-07-05T09:53:50;3.17;;;2.53;;
20140;SDS011;10231;47.702;9.826;2022-07-05T09:56:17;2.30;;;2.20;;
20140;SDS011;10231;47.702;9.826;2022-07-05T09:58:43;2.50;;;2.40;;
20140;SDS011;10231;47.702;9.826;2022-07-05T10:03:54;3.17;;;2.97;;
20140;SDS011;10231;47.702;9.826;2022-07-05T10:06:25;3.27;;;3.03;;
20140;SDS011;10231;47.702;9.826;2022-07-05T10:08:55;2.93;;;2.73;;
20140;SDS011;10231;47.702;9.826;2022-07-05T10:11:21;3.20;;;3.00;;
20140;SDS011;10231;47.702;9.826;2022-07-05T10:13:47;2.60;;;2.40;;
20140;SDS011;10231;47.702;9.826;2022-07-05T10:16:15;2.73;;;2.03;;
20140;SDS011;10231;47.702;9.826;2022-07-05T10:18:43;2.30;;;2.20;;
20140;SDS011;10231;47.702;9.826;2022-07-05T10:21:13;2.87;;;2.67;;
20140;SDS011;10231;47.702;9.826;2022-07-05T10:23:44;2.60;;;2.50;;
20140;SDS011;10231;47.702;9.826;2022-07-05T10:26:11;2.57;;;2.37;;
20140;SDS011;10231;47.702;9.826;2022-07-05T10:28:38;2.30;;;2.20;;
20140;SDS011;10231;47.702;9.826;2022-07-05T10:31:06;2.90;;;1.80;;
20140;SDS011;10231;47.702;9.826;2022-07-05T10:33:33;1.60;;;1.50;;
20140;SDS011;10231;47.702;9.826;2022-07-05T10:36:00;2.00;;;1.90;;
20140;SDS011;10231;47.702;9.826;2022-07-05T10:38:26;2.20;;;1.30;;
20140;SDS011;10231;47.702;9.826;2022-07-05T10:40:54;1.60;;;1.50;;
20140;SDS011;10231;47.702;9.826;2022-07-05T10:43:23;1.77;;;1.50;;
20140;SDS011;10231;47.702;9.826;2022-07-05T10:45:50;2.17;;;1.60;;
20140;SDS011;10231;47.702;9.826;2022-07-05T10:48:20;2.73;;;1.50;;
20140;SDS011;10231;47.702;9.826;2022-07-05T10:53:13;2.10;;;1.40;;
20140;SDS011;10231;47.702;9.826;2022-07-05T10:56:26;2.13;;;1.63;;
20140;SDS011;10231;47.702;9.826;2022-07-05T11:03:49;1.70;;;1.60;;
20140;SDS011;10231;47.702;9.826;2022-07-05T11:06:21;2.07;;;1.83;;
20140;SDS011;10231;47.702;9.826;2022-07-05T11:11:23;2.33;;;1.27;;
20140;SDS011;10231;47.702;9.826;2022-07-05T11:13:53;1.20;;;1.20;;
20140;SDS011;10231;47.702;9.826;2022-07-05T11:16:23;1.90;;;1.50;;
20140;SDS011;10231;47.702;9.826;2022-07-05T11:21:30;2.30;;;1.00;;
20140;SDS011;10231;47.702;9.826;2022-07-05T11:26:51;1.53;;;1.43;;
20140;SDS011;10231;47.702;9.826;2022-07-05T11:32:09;1.63;;;1.50;;
20140;SDS011;10231;47.702;9.826;2022-07-05T11:34:39;1.60;;;1.50;;
20140;SDS011;10231;47.702;9.826;2022-07-05T11:39:38;1.63;;;1.50;;
20140;SDS011;10231;47.702;9.826;2022-07-05T11:42:04;2.53;;;1.30;;
20140;SDS011;10231;47.702;9.826;2022-07-05T11:44:34;1.47;;;1.00;;
20140;SDS011;10231;47.702;9.826;2022-07-05T11:47:01;1.70;;;1.30;;
20140;SDS011;10231;47.702;9.826;2022-07-05T11:49:27;1.97;;;1.40;;
20140;SDS011;10231;47.702;9.826;2022-07-05T11:52:02;2.57;;;1.50;;
20140;SDS011;10231;47.702;9.826;2022-07-05T11:54:29;1.70;;;1.60;;
20140;SDS011;10231;47.702;9.826;2022-07-05T11:56:56;1.50;;;1.17;;
20140;SDS011;10231;47.702;9.826;2022-07-05T11:59:42;1.60;;;1.20;;
20140;SDS011;10231;47.702;9.826;2022-07-05T12:02:07;1.30;;;1.17;;
20140;SDS011;10231;47.702;9.826;2022-07-05T12:04:33;1.43;;;1.20;;
20140;SDS011;10231;47.702;9.826;2022-07-05T12:06:59;0.90;;;0.90;;
20140;SDS011;10231;47.702;9.826;2022-07-05T12:09:25;1.17;;;0.90;;
20140;SDS011;10231;47.702;9.826;2022-07-05T12:11:53;1.83;;;1.30;;
20140;SDS011;10231;47.702;9.826;2022-07-05T12:14:49;1.33;;;0.93;;
20140;SDS011;10231;47.702;9.826;2022-07-05T12:17:16;1.23;;;1.07;;
20140;SDS011;10231;47.702;9.826;2022-07-05T12:19:44;1.47;;;1.00;;
20140;SDS011;10231;47.702;9.826;2022-07-05T12:22:10;1.10;;;1.00;;
20140;SDS011;10231;47.702;9.826;2022-07-05T12:24:36;1.00;;;1.00;;
20140;SDS011;10231;47.702;9.826;2022-07-05T12:27:01;1.47;;;1.00;;
20140;SDS011;10231;47.702;9.826;2022-07-05T12:29:28;1.13;;;0.90;;
20140;SDS011;10231;47.702;9.826;2022-07-05T12:32:03;1.30;;;1.20;;
20140;SDS011;10231;47.702;9.826;2022-07-05T12:34:33;1.10;;;1.10;;
20140;SDS011;10231;47.702;9.826;2022-07-05T12:36:59;1.73;;;1.30;;
20140;SDS011;10231;47.702;9.826;2022-07-05T12:39:25;1.13;;;0.90;;
20140;SDS011;10231;47.702;9.826;2022-07-05T12:41:51;1.60;;;1.37;;
20140;SDS011;10231;47.702;9.826;2022-07-05T12:44:20;0.97;;;0.93;;
20140;SDS011;10231;47.702;9.826;2022-07-05T12:46:46;0.97;;;0.90;;
20140;SDS011;10231;47.702;9.826;2022-07-05T12:49:14;1.37;;;1.20;;
20140;SDS011;10231;47.702;9.826;2022-07-05T12:51:41;1.63;;;1.53;;
20140;SDS011;10231;47.702;9.826;2022-07-05T12:54:17;1.47;;;1.07;;
20140;SDS011;10231;47.702;9.826;2022-07-05T12:57:03;2.60;;;1.20;;
20140;SDS011;10231;47.702;9.826;2022-07-05T12:59:57;1.37;;;1.27;;
20140;SDS011;10231;47.702;9.826;2022-07-05T13:02:35;3.63;;;1.40;;
20140;SDS011;10231;47.702;9.826;2022-07-05T13:05:05;1.27;;;1.17;;
20140;SDS011;10231;47.702;9.826;2022-07-05T13:07:32;2.13;;;0.93;;
20140;SDS011;10231;47.702;9.826;2022-07-05T13:10:12;1.17;;;1.00;;
20140;SDS011;10231;47.702;9.826;2022-07-05T13:12:46;1.53;;;1.00;;
20140;SDS011;10231;47.702;9.826;2022-07-05T13:15:13;1.50;;;1.40;;
20140;SDS011;10231;47.702;9.826;2022-07-05T13:17:38;1.20;;;1.10;;
20140;SDS011;10231;47.702;9.826;2022-07-05T13:20:05;1.10;;;1.10;;
20140;SDS011;10231;47.702;9.826;2022-07-05T13:22:32;1.20;;;1.20;;
20140;SDS011;10231;47.702;9.826;2022-07-05T13:24:57;1.03;;;0.90;;
20140;SDS011;10231;47.702;9.826;2022-07-05T13:27:23;1.10;;;1.10;;
20140;SDS011;10231;47.702;9.826;2022-07-05T13:29:49;1.83;;;1.20;;
20140;SDS011;10231;47.702;9.826;2022-07-05T13:32:14;1.33;;;1.27;;
20140;SDS011;10231;47.702;9.826;2022-07-05T13:34:42;2.50;;;1.20;;
20140;SDS011;10231;47.702;9.826;2022-07-05T13:37:08;1.20;;;1.20;;
20140;SDS011;10231;47.702;9.826;2022-07-05T13:39:33;1.33;;;1.20;;
20140;SDS011;10231;47.702;9.826;2022-07-05T13:41:59;0.97;;;0.97;;
20140;SDS011;10231;47.702;9.826;2022-07-05T13:44:25;1.50;;;1.30;;
20140;SDS011;10231;47.702;9.826;2022-07-05T13:46:50;1.30;;;1.20;;
20140;SDS011;10231;47.702;9.826;2022-07-05T13:49:16;1.33;;;1.23;;
20140;SDS011;10231;47.702;9.826;2022-07-05T13:51:42;1.70;;;1.30;;
20140;SDS011;10231;47.702;9.826;2022-07-05T13:54:08;2.27;;;1.30;;
20140;SDS011;10231;47.702;9.826;2022-07-05T13:56:33;1.20;;;1.10;;
20140;SDS011;10231;47.702;9.826;2022-07-05T13:59:02;1.23;;;1.20;;
20140;SDS011;10231;47.702;9.826;2022-07-05T14:01:28;1.27;;;1.17;;
20140;SDS011;10231;47.702;9.826;2022-07-05T14:03:55;1.17;;;1.07;;
20140;SDS011;10231;47.702;9.826;2022-07-05T14:06:23;1.03;;;1.03;;
20140;SDS011;10231;47.702;9.826;2022-07-05T14:08:52;1.30;;;1.20;;
20140;SDS011;10231;47.702;9.826;2022-07-05T14:11:18;2.40;;;1.53;;
20140;SDS011;10231;47.702;9.826;2022-07-05T14:13:43;1.33;;;1.20;;
20140;SDS011;10231;47.702;9.826;2022-07-05T14:16:09;2.13;;;1.60;;
20140;SDS011;10231;47.702;9.826;2022-07-05T14:18:34;1.17;;;1.07;;
20140;SDS011;10231;47.702;9.826;2022-07-05T14:21:00;1.47;;;0.97;;
20140;SDS011;10231;47.702;9.826;2022-07-05T14:23:26;0.90;;;0.90;;
20140;SDS011;10231;47.702;9.826;2022-07-05T14:25:52;1.57;;;1.27;;
20140;SDS011;10231;47.702;9.826;2022-07-05T14:28:17;3.50;;;1.43;;
20140;SDS011;10231;47.702;9.826;2022-07-05T14:30:44;1.37;;;1.00;;
20140;SDS011;10231;47.702;9.826;2022-07-05T14:33:11;1.77;;;1.10;;
20140;SDS011;10231;47.702;9.826;2022-07-05T14:35:38;1.67;;;1.20;;
20140;SDS011;10231;47.702;9.826;2022-07-05T14:38:05;1.30;;;1.20;;
20140;SDS011;10231;47.702;9.826;2022-07-05T14:40:31;1.30;;;1.10;;
20140;SDS011;10231;47.702;9.826;2022-07-05T14:42:58;1.77;;;0.93;;
20140;SDS011;10231;47.702;9.826;2022-07-05T14:45:24;2.53;;;2.03;;
20140;SDS011;10231;47.702;9.826;2022-07-05T14:47:50;1.70;;;1.00;;
20140;SDS011;10231;47.702;9.826;2022-07-05T14:50:16;1.07;;;1.00;;
20140;SDS011;10231;47.702;9.826;2022-07-05T14:52:42;1.67;;;1.23;;
20140;SDS011;10231;47.702;9.826;2022-07-05T14:55:08;2.87;;;1.33;;
20140;SDS011;10231;47.702;9.826;2022-07-05T14:57:35;1.30;;;1.20;;
20140;SDS011;10231;47.702;9.826;2022-07-05T15:00:01;0.90;;;0.90;;
20140;SDS011;10231;47.702;9.826;2022-07-05T15:02:28;1.60;;;1.40;;
20140;SDS011;10231;47.702;9.826;2022-07-05T15:04:54;2.30;;;1.10;;
20140;SDS011;10231;47.702;9.826;2022-07-05T15:07:19;3.77;;;1.40;;
20140;SDS011;10231;47.702;9.826;2022-07-05T15:09:45;1.53;;;1.43;;
20140;SDS011;10231;47.702;9.826;2022-07-05T15:12:11;2.23;;;1.20;;
20140;SDS011;10231;47.702;9.826;2022-07-05T15:14:37;1.60;;;1.50;;
20140;SDS011;10231;47.702;9.826;2022-07-05T15:17:02;3.73;;;1.00;;
20140;SDS011;10231;47.702;9.826;2022-07-05T15:19:28;0.93;;;0.93;;
20140;SDS011;10231;47.702;9.826;2022-07-05T15:21:54;1.40;;;1.10;;